Mirabile, Missouri
Current Conditions -  °F | °C
As of 9:55 AM on Sunday 21 Dec 2014 (Local Time) from KGPH Reporting Station
Haze Haze  
Wind Chill: 33°   Ceiling: NA
Heat Index: 37°   Visibility: 3mi
Dew Point: 37°   Wind: 6mph
Humidity: 100%   Direction: 150°SSE
Pressure: 30.02"   Gusts: NA
Location:  39.5693°N, 94.0956°W
Report Text: KGPH 211555Z AUTO 15005KT 3SM BR 03/03 A3002 RMK AO2
Loading
Personal Weather Stations






























Interactive Weather Map New forecast layout! Learn more

10-Day Weather Forecast

Advertisements
Track Severe Weather on mobile